sensor_id;sensor_type;location;lat;lon;timestamp;temperature;humidity
71837;DHT22;59686;51.716;7.016;2024-01-30T00:02:15;9.00;96.90
71837;DHT22;59686;51.716;7.016;2024-01-30T00:04:40;9.10;96.90
71837;DHT22;59686;51.716;7.016;2024-01-30T00:07:06;9.10;97.00
71837;DHT22;59686;51.716;7.016;2024-01-30T00:09:31;9.10;97.00
71837;DHT22;59686;51.716;7.016;2024-01-30T00:11:57;9.10;97.00
71837;DHT22;59686;51.716;7.016;2024-01-30T00:14:23;9.10;97.00
71837;DHT22;59686;51.716;7.016;2024-01-30T00:16:50;9.10;96.90
71837;DHT22;59686;51.716;7.016;2024-01-30T00:19:15;9.10;96.90
71837;DHT22;59686;51.716;7.016;2024-01-30T00:21:41;9.10;96.90
71837;DHT22;59686;51.716;7.016;2024-01-30T00:24:07;9.10;97.00
71837;DHT22;59686;51.716;7.016;2024-01-30T00:26:33;9.10;96.90
71837;DHT22;59686;51.716;7.016;2024-01-30T00:29:29;9.00;96.90
71837;DHT22;59686;51.716;7.016;2024-01-30T00:31:56;9.00;96.90
71837;DHT22;59686;51.716;7.016;2024-01-30T00:34:22;9.10;97.00
71837;DHT22;59686;51.716;7.016;2024-01-30T00:36:47;9.10;97.00
71837;DHT22;59686;51.716;7.016;2024-01-30T00:39:13;9.10;97.00
71837;DHT22;59686;51.716;7.016;2024-01-30T00:41:41;9.00;97.00
71837;DHT22;59686;51.716;7.016;2024-01-30T00:44:06;9.00;97.00
71837;DHT22;59686;51.716;7.016;2024-01-30T00:46:32;9.00;97.00
71837;DHT22;59686;51.716;7.016;2024-01-30T00:48:58;9.00;97.00
71837;DHT22;59686;51.716;7.016;2024-01-30T00:51:23;9.10;97.00
71837;DHT22;59686;51.716;7.016;2024-01-30T00:53:49;8.90;96.90
71837;DHT22;59686;51.716;7.016;2024-01-30T00:56:15;9.10;97.00
71837;DHT22;59686;51.716;7.016;2024-01-30T00:58:43;9.00;97.00
71837;DHT22;59686;51.716;7.016;2024-01-30T01:01:27;8.90;96.90
71837;DHT22;59686;51.716;7.016;2024-01-30T01:03:53;9.00;97.00
71837;DHT22;59686;51.716;7.016;2024-01-30T01:06:19;9.10;97.00
71837;DHT22;59686;51.716;7.016;2024-01-30T01:08:45;9.00;97.00
71837;DHT22;59686;51.716;7.016;2024-01-30T01:11:10;9.10;97.00
71837;DHT22;59686;51.716;7.016;2024-01-30T01:13:36;9.00;97.00
71837;DHT22;59686;51.716;7.016;2024-01-30T01:16:09;9.00;97.00
71837;DHT22;59686;51.716;7.016;2024-01-30T01:18:34;9.00;97.00
71837;DHT22;59686;51.716;7.016;2024-01-30T01:21:00;9.00;97.00
71837;DHT22;59686;51.716;7.016;2024-01-30T01:23:26;9.00;97.00
71837;DHT22;59686;51.716;7.016;2024-01-30T01:25:52;9.00;97.00
71837;DHT22;59686;51.716;7.016;2024-01-30T01:28:17;9.00;97.00
71837;DHT22;59686;51.716;7.016;2024-01-30T01:30:44;9.10;97.00
71837;DHT22;59686;51.716;7.016;2024-01-30T01:33:10;9.00;97.00
71837;DHT22;59686;51.716;7.016;2024-01-30T01:35:35;8.90;97.00
71837;DHT22;59686;51.716;7.016;2024-01-30T01:38:01;9.00;97.00
71837;DHT22;59686;51.716;7.016;2024-01-30T01:40:28;9.00;97.00
71837;DHT22;59686;51.716;7.016;2024-01-30T01:43:18;9.00;97.10
71837;DHT22;59686;51.716;7.016;2024-01-30T01:45:45;9.00;97.00
71837;DHT22;59686;51.716;7.016;2024-01-30T01:48:11;9.00;97.00
71837;DHT22;59686;51.716;7.016;2024-01-30T01:51:03;9.00;97.00
71837;DHT22;59686;51.716;7.016;2024-01-30T01:53:29;9.00;97.00
71837;DHT22;59686;51.716;7.016;2024-01-30T01:55:55;8.90;97.00
71837;DHT22;59686;51.716;7.016;2024-01-30T01:58:32;8.90;97.00
71837;DHT22;59686;51.716;7.016;2024-01-30T02:00:59;9.00;97.00
71837;DHT22;59686;51.716;7.016;2024-01-30T02:03:24;9.00;97.00
71837;DHT22;59686;51.716;7.016;2024-01-30T02:05:50;8.90;97.00
71837;DHT22;59686;51.716;7.016;2024-01-30T02:08:17;8.80;97.00
71837;DHT22;59686;51.716;7.016;2024-01-30T02:10:42;8.90;97.00
71837;DHT22;59686;51.716;7.016;2024-01-30T02:13:08;8.90;97.00
71837;DHT22;59686;51.716;7.016;2024-01-30T02:15:34;8.90;97.00
71837;DHT22;59686;51.716;7.016;2024-01-30T02:17:59;8.80;97.00
71837;DHT22;59686;51.716;7.016;2024-01-30T02:20:25;8.90;97.00
71837;DHT22;59686;51.716;7.016;2024-01-30T02:22:54;8.90;97.00
71837;DHT22;59686;51.716;7.016;2024-01-30T02:25:33;8.90;97.00
71837;DHT22;59686;51.716;7.016;2024-01-30T02:27:59;8.90;97.00
71837;DHT22;59686;51.716;7.016;2024-01-30T02:30:24;8.90;97.00
71837;DHT22;59686;51.716;7.016;2024-01-30T02:32:50;8.90;97.00
71837;DHT22;59686;51.716;7.016;2024-01-30T02:35:15;8.90;97.00
71837;DHT22;59686;51.716;7.016;2024-01-30T02:37:41;8.90;97.00
71837;DHT22;59686;51.716;7.016;2024-01-30T02:40:07;8.90;97.00
71837;DHT22;59686;51.716;7.016;2024-01-30T02:42:33;8.90;97.00
71837;DHT22;59686;51.716;7.016;2024-01-30T02:45:00;8.90;97.30
71837;DHT22;59686;51.716;7.016;2024-01-30T02:47:26;8.90;97.00
71837;DHT22;59686;51.716;7.016;2024-01-30T02:49:52;8.90;97.00
71837;DHT22;59686;51.716;7.016;2024-01-30T02:52:17;8.90;97.10
71837;DHT22;59686;51.716;7.016;2024-01-30T02:54:43;8.90;97.00
71837;DHT22;59686;51.716;7.016;2024-01-30T02:57:19;8.90;97.00
71837;DHT22;59686;51.716;7.016;2024-01-30T02:59:45;9.00;97.10
71837;DHT22;59686;51.716;7.016;2024-01-30T03:02:11;8.90;97.10
71837;DHT22;59686;51.716;7.016;2024-01-30T03:04:36;8.90;97.10
71837;DHT22;59686;51.716;7.016;2024-01-30T03:07:02;8.90;97.10
71837;DHT22;59686;51.716;7.016;2024-01-30T03:09:28;8.90;97.10
71837;DHT22;59686;51.716;7.016;2024-01-30T03:12:02;8.90;97.10
71837;DHT22;59686;51.716;7.016;2024-01-30T03:14:28;8.90;97.10
71837;DHT22;59686;51.716;7.016;2024-01-30T03:16:54;8.90;97.10
71837;DHT22;59686;51.716;7.016;2024-01-30T03:19:19;8.90;97.10
71837;DHT22;59686;51.716;7.016;2024-01-30T03:21:45;8.80;97.10
71837;DHT22;59686;51.716;7.016;2024-01-30T03:24:11;8.80;97.10
71837;DHT22;59686;51.716;7.016;2024-01-30T03:26:36;8.90;97.10
71837;DHT22;59686;51.716;7.016;2024-01-30T03:29:02;8.90;97.10
71837;DHT22;59686;51.716;7.016;2024-01-30T03:31:27;8.80;97.10
71837;DHT22;59686;51.716;7.016;2024-01-30T03:33:53;8.80;97.10
71837;DHT22;59686;51.716;7.016;2024-01-30T03:36:20;8.80;97.10
71837;DHT22;59686;51.716;7.016;2024-01-30T03:38:45;8.80;97.10
71837;DHT22;59686;51.716;7.016;2024-01-30T03:41:11;8.80;97.10
71837;DHT22;59686;51.716;7.016;2024-01-30T03:43:36;8.80;97.10
71837;DHT22;59686;51.716;7.016;2024-01-30T03:46:03;8.80;97.00
71837;DHT22;59686;51.716;7.016;2024-01-30T03:48:29;8.80;97.00
71837;DHT22;59686;51.716;7.016;2024-01-30T03:50:54;8.80;97.00
71837;DHT22;59686;51.716;7.016;2024-01-30T03:53:20;8.80;97.00
71837;DHT22;59686;51.716;7.016;2024-01-30T03:55:46;8.80;97.10
71837;DHT22;59686;51.716;7.016;2024-01-30T03:58:11;8.80;97.10
71837;DHT22;59686;51.716;7.016;2024-01-30T04:00:56;8.80;97.00
71837;DHT22;59686;51.716;7.016;2024-01-30T04:03:21;8.80;97.00
71837;DHT22;59686;51.716;7.016;2024-01-30T04:05:47;8.80;97.00
71837;DHT22;59686;51.716;7.016;2024-01-30T04:08:12;8.80;97.00
71837;DHT22;59686;51.716;7.016;2024-01-30T04:10:38;8.80;97.00
71837;DHT22;59686;51.716;7.016;2024-01-30T04:13:04;8.80;97.00
71837;DHT22;59686;51.716;7.016;2024-01-30T04:15:29;8.70;97.00
71837;DHT22;59686;51.716;7.016;2024-01-30T04:17:58;8.70;97.00
71837;DHT22;59686;51.716;7.016;2024-01-30T04:20:25;8.80;97.00
71837;DHT22;59686;51.716;7.016;2024-01-30T04:22:51;8.70;97.00
71837;DHT22;59686;51.716;7.016;2024-01-30T04:25:16;8.70;97.00
71837;DHT22;59686;51.716;7.016;2024-01-30T04:27:42;8.70;97.00
71837;DHT22;59686;51.716;7.016;2024-01-30T04:30:08;8.70;97.00
71837;DHT22;59686;51.716;7.016;2024-01-30T04:32:35;8.70;97.00
71837;DHT22;59686;51.716;7.016;2024-01-30T04:35:00;8.70;97.00
71837;DHT22;59686;51.716;7.016;2024-01-30T04:37:26;8.70;97.00
71837;DHT22;59686;51.716;7.016;2024-01-30T04:39:52;8.70;97.00
71837;DHT22;59686;51.716;7.016;2024-01-30T04:42:17;8.70;97.00
71837;DHT22;59686;51.716;7.016;2024-01-30T04:44:43;8.70;97.00
71837;DHT22;59686;51.716;7.016;2024-01-30T04:47:09;8.70;96.90
71837;DHT22;59686;51.716;7.016;2024-01-30T04:49:38;8.70;97.00
71837;DHT22;59686;51.716;7.016;2024-01-30T04:52:04;8.70;96.90
71837;DHT22;59686;51.716;7.016;2024-01-30T04:54:30;8.70;96.90
71837;DHT22;59686;51.716;7.016;2024-01-30T04:56:56;8.70;96.90
71837;DHT22;59686;51.716;7.016;2024-01-30T04:59:21;8.70;96.90
71837;DHT22;59686;51.716;7.016;2024-01-30T05:02:01;8.70;96.90
71837;DHT22;59686;51.716;7.016;2024-01-30T05:04:27;8.70;96.90
71837;DHT22;59686;51.716;7.016;2024-01-30T05:06:52;8.70;96.90
71837;DHT22;59686;51.716;7.016;2024-01-30T05:09:18;8.70;96.90
71837;DHT22;59686;51.716;7.016;2024-01-30T05:11:44;8.70;96.90
71837;DHT22;59686;51.716;7.016;2024-01-30T05:14:10;8.70;96.90
71837;DHT22;59686;51.716;7.016;2024-01-30T05:16:37;8.70;96.90
71837;DHT22;59686;51.716;7.016;2024-01-30T05:19:02;8.70;96.90
71837;DHT22;59686;51.716;7.016;2024-01-30T05:21:28;8.70;96.90
71837;DHT22;59686;51.716;7.016;2024-01-30T05:23:54;8.70;96.90
71837;DHT22;59686;51.716;7.016;2024-01-30T05:26:19;8.60;96.90
71837;DHT22;59686;51.716;7.016;2024-01-30T05:28:45;8.70;96.90
71837;DHT22;59686;51.716;7.016;2024-01-30T05:31:26;8.70;96.90
71837;DHT22;59686;51.716;7.016;2024-01-30T05:33:52;8.70;96.90
71837;DHT22;59686;51.716;7.016;2024-01-30T05:36:18;8.70;96.90
71837;DHT22;59686;51.716;7.016;2024-01-30T05:38:43;8.70;96.90
71837;DHT22;59686;51.716;7.016;2024-01-30T05:41:09;8.60;96.90
71837;DHT22;59686;51.716;7.016;2024-01-30T05:43:35;8.70;96.90
71837;DHT22;59686;51.716;7.016;2024-01-30T05:46:00;8.60;96.90
71837;DHT22;59686;51.716;7.016;2024-01-30T05:48:26;8.70;96.90
71837;DHT22;59686;51.716;7.016;2024-01-30T05:50:52;8.60;96.90
71837;DHT22;59686;51.716;7.016;2024-01-30T05:53:17;8.60;96.80
71837;DHT22;59686;51.716;7.016;2024-01-30T05:55:43;8.60;96.80
71837;DHT22;59686;51.716;7.016;2024-01-30T05:58:09;8.70;96.80
71837;DHT22;59686;51.716;7.016;2024-01-30T06:00:43;8.60;96.80
71837;DHT22;59686;51.716;7.016;2024-01-30T06:03:08;8.60;96.90
71837;DHT22;59686;51.716;7.016;2024-01-30T06:05:34;8.60;97.20
71837;DHT22;59686;51.716;7.016;2024-01-30T06:08:00;8.60;96.80
71837;DHT22;59686;51.716;7.016;2024-01-30T06:10:25;8.60;96.80
71837;DHT22;59686;51.716;7.016;2024-01-30T06:12:51;8.60;96.90
71837;DHT22;59686;51.716;7.016;2024-01-30T06:15:16;8.60;96.80
71837;DHT22;59686;51.716;7.016;2024-01-30T06:17:42;8.70;96.80
71837;DHT22;59686;51.716;7.016;2024-01-30T06:20:08;8.60;96.80
71837;DHT22;59686;51.716;7.016;2024-01-30T06:22:33;8.60;96.80
71837;DHT22;59686;51.716;7.016;2024-01-30T06:24:59;8.60;96.80
71837;DHT22;59686;51.716;7.016;2024-01-30T06:27:25;8.70;96.90
71837;DHT22;59686;51.716;7.016;2024-01-30T06:29:50;8.70;96.90
71837;DHT22;59686;51.716;7.016;2024-01-30T06:32:16;8.60;96.90
71837;DHT22;59686;51.716;7.016;2024-01-30T06:34:42;8.60;96.90
71837;DHT22;59686;51.716;7.016;2024-01-30T06:37:09;8.60;96.90
71837;DHT22;59686;51.716;7.016;2024-01-30T06:39:35;8.60;96.90
71837;DHT22;59686;51.716;7.016;2024-01-30T06:42:01;8.50;96.90
71837;DHT22;59686;51.716;7.016;2024-01-30T06:44:26;8.60;96.90
71837;DHT22;59686;51.716;7.016;2024-01-30T06:46:52;8.60;96.90
71837;DHT22;59686;51.716;7.016;2024-01-30T06:49:18;8.60;96.90
71837;DHT22;59686;51.716;7.016;2024-01-30T06:51:43;8.60;96.90
71837;DHT22;59686;51.716;7.016;2024-01-30T06:54:09;8.60;96.90
71837;DHT22;59686;51.716;7.016;2024-01-30T06:56:35;8.60;96.90
71837;DHT22;59686;51.716;7.016;2024-01-30T06:59:01;8.60;96.90
71837;DHT22;59686;51.716;7.016;2024-01-30T07:02:01;8.60;96.90
71837;DHT22;59686;51.716;7.016;2024-01-30T07:04:26;8.60;97.00
71837;DHT22;59686;51.716;7.016;2024-01-30T07:06:52;8.60;97.00
71837;DHT22;59686;51.716;7.016;2024-01-30T07:09:18;8.60;97.00
71837;DHT22;59686;51.716;7.016;2024-01-30T07:11:44;8.60;97.00
71837;DHT22;59686;51.716;7.016;2024-01-30T07:14:11;8.60;97.00
71837;DHT22;59686;51.716;7.016;2024-01-30T07:16:38;8.50;97.00
71837;DHT22;59686;51.716;7.016;2024-01-30T07:19:03;8.60;97.00
71837;DHT22;59686;51.716;7.016;2024-01-30T07:21:29;8.60;97.00
71837;DHT22;59686;51.716;7.016;2024-01-30T07:23:55;8.50;97.00
71837;DHT22;59686;51.716;7.016;2024-01-30T07:26:21;8.60;97.00
71837;DHT22;59686;51.716;7.016;2024-01-30T07:28:46;8.60;97.00
71837;DHT22;59686;51.716;7.016;2024-01-30T07:31:12;8.50;97.00
71837;DHT22;59686;51.716;7.016;2024-01-30T07:33:38;8.60;97.10
71837;DHT22;59686;51.716;7.016;2024-01-30T07:36:07;8.50;97.00
71837;DHT22;59686;51.716;7.016;2024-01-30T07:38:34;8.60;97.10
71837;DHT22;59686;51.716;7.016;2024-01-30T07:40:59;8.60;97.10
71837;DHT22;59686;51.716;7.016;2024-01-30T07:43:25;8.60;97.10
71837;DHT22;59686;51.716;7.016;2024-01-30T07:45:51;8.60;97.10
71837;DHT22;59686;51.716;7.016;2024-01-30T07:48:16;8.50;97.10
71837;DHT22;59686;51.716;7.016;2024-01-30T07:50:42;8.50;97.10
71837;DHT22;59686;51.716;7.016;2024-01-30T07:53:08;8.50;97.10
71837;DHT22;59686;51.716;7.016;2024-01-30T07:55:43;8.70;97.20
71837;DHT22;59686;51.716;7.016;2024-01-30T07:58:12;8.60;97.10
71837;DHT22;59686;51.716;7.016;2024-01-30T08:00:37;8.50;97.10
71837;DHT22;59686;51.716;7.016;2024-01-30T08:03:04;8.50;97.10
71837;DHT22;59686;51.716;7.016;2024-01-30T08:05:29;8.50;97.10
71837;DHT22;59686;51.716;7.016;2024-01-30T08:07:55;8.50;97.10
71837;DHT22;59686;51.716;7.016;2024-01-30T08:10:29;8.60;97.20
71837;DHT22;59686;51.716;7.016;2024-01-30T08:12:54;8.60;97.20
71837;DHT22;59686;51.716;7.016;2024-01-30T08:15:20;8.70;97.30
71837;DHT22;59686;51.716;7.016;2024-01-30T08:17:46;8.60;97.20
71837;DHT22;59686;51.716;7.016;2024-01-30T08:20:11;8.60;97.20
71837;DHT22;59686;51.716;7.016;2024-01-30T08:22:40;8.60;97.20
71837;DHT22;59686;51.716;7.016;2024-01-30T08:25:06;8.60;97.20
71837;DHT22;59686;51.716;7.016;2024-01-30T08:27:33;8.60;97.20
71837;DHT22;59686;51.716;7.016;2024-01-30T08:30:01;8.60;97.30
71837;DHT22;59686;51.716;7.016;2024-01-30T08:32:29;8.60;97.30
71837;DHT22;59686;51.716;7.016;2024-01-30T08:34:54;8.70;97.40
71837;DHT22;59686;51.716;7.016;2024-01-30T08:37:20;8.50;97.40
71837;DHT22;59686;51.716;7.016;2024-01-30T08:39:45;8.60;97.40
71837;DHT22;59686;51.716;7.016;2024-01-30T08:42:11;8.60;97.40
71837;DHT22;59686;51.716;7.016;2024-01-30T08:44:37;8.60;97.40
71837;DHT22;59686;51.716;7.016;2024-01-30T08:47:04;8.70;97.50
71837;DHT22;59686;51.716;7.016;2024-01-30T08:49:29;8.60;97.40
71837;DHT22;59686;51.716;7.016;2024-01-30T08:51:55;8.60;97.50
71837;DHT22;59686;51.716;7.016;2024-01-30T08:54:33;8.60;97.50
71837;DHT22;59686;51.716;7.016;2024-01-30T08:57:00;8.60;97.50
71837;DHT22;59686;51.716;7.016;2024-01-30T08:59:26;8.60;97.50
71837;DHT22;59686;51.716;7.016;2024-01-30T09:01:51;8.60;97.50
71837;DHT22;59686;51.716;7.016;2024-01-30T09:04:21;8.60;97.50
71837;DHT22;59686;51.716;7.016;2024-01-30T09:06:47;8.60;97.60
71837;DHT22;59686;51.716;7.016;2024-01-30T09:09:14;8.60;97.60
71837;DHT22;59686;51.716;7.016;2024-01-30T09:11:40;8.60;97.70
71837;DHT22;59686;51.716;7.016;2024-01-30T09:14:06;8.60;97.60
71837;DHT22;59686;51.716;7.016;2024-01-30T09:16:32;8.60;97.70
71837;DHT22;59686;51.716;7.016;2024-01-30T09:18:57;8.70;97.70
71837;DHT22;59686;51.716;7.016;2024-01-30T09:21:23;8.60;97.70
71837;DHT22;59686;51.716;7.016;2024-01-30T09:23:49;8.60;97.80
71837;DHT22;59686;51.716;7.016;2024-01-30T09:26:14;8.60;97.80
71837;DHT22;59686;51.716;7.016;2024-01-30T09:28:40;8.70;98.00
71837;DHT22;59686;51.716;7.016;2024-01-30T09:31:17;8.70;98.00
71837;DHT22;59686;51.716;7.016;2024-01-30T09:33:43;8.70;97.90
71837;DHT22;59686;51.716;7.016;2024-01-30T09:36:09;8.70;97.90
71837;DHT22;59686;51.716;7.016;2024-01-30T09:38:35;8.70;98.00
71837;DHT22;59686;51.716;7.016;2024-01-30T09:41:03;8.70;97.90
71837;DHT22;59686;51.716;7.016;2024-01-30T09:43:33;8.70;98.00
71837;DHT22;59686;51.716;7.016;2024-01-30T09:46:01;8.70;98.00
71837;DHT22;59686;51.716;7.016;2024-01-30T09:48:29;8.70;98.00
71837;DHT22;59686;51.716;7.016;2024-01-30T09:50:58;8.70;98.00
71837;DHT22;59686;51.716;7.016;2024-01-30T09:53:25;8.70;98.00
71837;DHT22;59686;51.716;7.016;2024-01-30T09:55:51;8.60;97.90
71837;DHT22;59686;51.716;7.016;2024-01-30T09:58:16;8.80;98.00
71837;DHT22;59686;51.716;7.016;2024-01-30T10:00:42;8.70;98.00
71837;DHT22;59686;51.716;7.016;2024-01-30T10:03:08;8.70;98.00
71837;DHT22;59686;51.716;7.016;2024-01-30T10:05:36;8.70;98.10
71837;DHT22;59686;51.716;7.016;2024-01-30T10:08:06;8.80;98.00
71837;DHT22;59686;51.716;7.016;2024-01-30T10:10:34;8.80;98.10
71837;DHT22;59686;51.716;7.016;2024-01-30T10:13:00;8.70;98.00
71837;DHT22;59686;51.716;7.016;2024-01-30T10:15:28;8.80;98.10
71837;DHT22;59686;51.716;7.016;2024-01-30T10:17:53;8.70;98.10
71837;DHT22;59686;51.716;7.016;2024-01-30T10:20:19;8.70;98.10
71837;DHT22;59686;51.716;7.016;2024-01-30T10:22:48;8.90;98.20
71837;DHT22;59686;51.716;7.016;2024-01-30T10:25:15;8.80;98.20
71837;DHT22;59686;51.716;7.016;2024-01-30T10:27:40;8.80;98.20
71837;DHT22;59686;51.716;7.016;2024-01-30T10:30:07;8.90;98.30
71837;DHT22;59686;51.716;7.016;2024-01-30T10:32:33;8.90;98.30
71837;DHT22;59686;51.716;7.016;2024-01-30T10:34:59;8.90;98.40
71837;DHT22;59686;51.716;7.016;2024-01-30T10:37:25;8.90;98.40
71837;DHT22;59686;51.716;7.016;2024-01-30T10:39:53;8.80;98.40
71837;DHT22;59686;51.716;7.016;2024-01-30T10:42:20;8.90;98.30
71837;DHT22;59686;51.716;7.016;2024-01-30T10:45:10;9.00;98.50
71837;DHT22;59686;51.716;7.016;2024-01-30T10:47:43;9.00;98.50
71837;DHT22;59686;51.716;7.016;2024-01-30T10:50:11;9.00;98.40
71837;DHT22;59686;51.716;7.016;2024-01-30T10:52:39;9.00;98.40
71837;DHT22;59686;51.716;7.016;2024-01-30T10:55:05;9.00;98.50
71837;DHT22;59686;51.716;7.016;2024-01-30T10:57:34;9.00;98.50
71837;DHT22;59686;51.716;7.016;2024-01-30T11:00:03;9.00;98.40
71837;DHT22;59686;51.716;7.016;2024-01-30T11:02:40;9.10;98.50
71837;DHT22;59686;51.716;7.016;2024-01-30T11:05:07;9.10;98.60
71837;DHT22;59686;51.716;7.016;2024-01-30T11:07:34;9.10;98.70
71837;DHT22;59686;51.716;7.016;2024-01-30T11:10:03;9.10;98.60
71837;DHT22;59686;51.716;7.016;2024-01-30T11:12:31;9.20;98.60
71837;DHT22;59686;51.716;7.016;2024-01-30T11:15:06;9.20;98.70
71837;DHT22;59686;51.716;7.016;2024-01-30T11:20:21;9.20;98.70
71837;DHT22;59686;51.716;7.016;2024-01-30T11:22:50;9.20;98.60
71837;DHT22;59686;51.716;7.016;2024-01-30T11:25:17;9.20;98.70
71837;DHT22;59686;51.716;7.016;2024-01-30T11:27:43;9.20;98.80
71837;DHT22;59686;51.716;7.016;2024-01-30T11:30:09;9.10;98.70
71837;DHT22;59686;51.716;7.016;2024-01-30T11:32:36;9.20;98.80
71837;DHT22;59686;51.716;7.016;2024-01-30T11:35:14;9.20;98.90
71837;DHT22;59686;51.716;7.016;2024-01-30T11:37:41;9.20;98.80
71837;DHT22;59686;51.716;7.016;2024-01-30T11:40:08;9.20;98.90
71837;DHT22;59686;51.716;7.016;2024-01-30T11:42:36;9.20;98.90
71837;DHT22;59686;51.716;7.016;2024-01-30T11:45:05;9.30;99.00
71837;DHT22;59686;51.716;7.016;2024-01-30T11:47:31;9.20;99.00
71837;DHT22;59686;51.716;7.016;2024-01-30T11:49:57;9.30;98.90
71837;DHT22;59686;51.716;7.016;2024-01-30T11:52:23;9.30;99.00
71837;DHT22;59686;51.716;7.016;2024-01-30T11:54:48;9.30;99.10
71837;DHT22;59686;51.716;7.016;2024-01-30T11:57:14;9.30;99.10
71837;DHT22;59686;51.716;7.016;2024-01-30T11:59:40;9.40;99.10
71837;DHT22;59686;51.716;7.016;2024-01-30T12:02:05;9.30;99.10
71837;DHT22;59686;51.716;7.016;2024-01-30T12:04:33;9.30;99.10
71837;DHT22;59686;51.716;7.016;2024-01-30T12:06:59;9.40;99.20
71837;DHT22;59686;51.716;7.016;2024-01-30T12:09:24;9.30;99.30
71837;DHT22;59686;51.716;7.016;2024-01-30T12:11:50;9.30;99.30
71837;DHT22;59686;51.716;7.016;2024-01-30T12:14:16;9.30;99.50
71837;DHT22;59686;51.716;7.016;2024-01-30T12:16:42;9.40;99.40
71837;DHT22;59686;51.716;7.016;2024-01-30T12:19:08;9.30;99.40
71837;DHT22;59686;51.716;7.016;2024-01-30T12:21:34;9.30;99.40
71837;DHT22;59686;51.716;7.016;2024-01-30T12:24:00;9.30;99.40
71837;DHT22;59686;51.716;7.016;2024-01-30T12:26:26;9.30;99.40
71837;DHT22;59686;51.716;7.016;2024-01-30T12:28:56;9.40;99.50
71837;DHT22;59686;51.716;7.016;2024-01-30T12:31:32;9.40;99.40
71837;DHT22;59686;51.716;7.016;2024-01-30T12:34:00;9.40;99.50
71837;DHT22;59686;51.716;7.016;2024-01-30T12:36:26;9.40;99.60
71837;DHT22;59686;51.716;7.016;2024-01-30T12:38:51;9.40;99.40
71837;DHT22;59686;51.716;7.016;2024-01-30T12:41:17;9.40;99.50
71837;DHT22;59686;51.716;7.016;2024-01-30T12:43:44;9.60;99.40
71837;DHT22;59686;51.716;7.016;2024-01-30T12:46:10;9.50;99.60
71837;DHT22;59686;51.716;7.016;2024-01-30T12:48:35;9.40;99.50
71837;DHT22;59686;51.716;7.016;2024-01-30T12:51:01;9.50;99.70
71837;DHT22;59686;51.716;7.016;2024-01-30T12:53:27;9.50;99.70
71837;DHT22;59686;51.716;7.016;2024-01-30T12:55:53;9.50;99.70
71837;DHT22;59686;51.716;7.016;2024-01-30T12:58:20;9.50;99.50
71837;DHT22;59686;51.716;7.016;2024-01-30T13:00:45;9.50;99.80
71837;DHT22;59686;51.716;7.016;2024-01-30T13:03:12;9.60;99.50
71837;DHT22;59686;51.716;7.016;2024-01-30T13:05:38;9.50;99.80
71837;DHT22;59686;51.716;7.016;2024-01-30T13:08:04;9.50;99.70
71837;DHT22;59686;51.716;7.016;2024-01-30T13:10:30;9.50;99.70
71837;DHT22;59686;51.716;7.016;2024-01-30T13:12:55;9.50;99.90
71837;DHT22;59686;51.716;7.016;2024-01-30T13:15:21;9.50;99.80
71837;DHT22;59686;51.716;7.016;2024-01-30T13:17:49;9.60;99.80
71837;DHT22;59686;51.716;7.016;2024-01-30T13:20:15;9.50;99.90
71837;DHT22;59686;51.716;7.016;2024-01-30T13:22:44;9.50;99.90
71837;DHT22;59686;51.716;7.016;2024-01-30T13:25:10;9.50;99.90
71837;DHT22;59686;51.716;7.016;2024-01-30T13:27:37;9.50;99.80
71837;DHT22;59686;51.716;7.016;2024-01-30T13:30:03;9.40;99.90
71837;DHT22;59686;51.716;7.016;2024-01-30T13:32:29;9.50;99.90
71837;DHT22;59686;51.716;7.016;2024-01-30T13:34:55;9.50;99.80
71837;DHT22;59686;51.716;7.016;2024-01-30T13:37:21;9.50;99.90
71837;DHT22;59686;51.716;7.016;2024-01-30T13:39:47;9.50;99.90
71837;DHT22;59686;51.716;7.016;2024-01-30T13:42:20;9.50;99.90
71837;DHT22;59686;51.716;7.016;2024-01-30T13:44:46;9.50;99.90
71837;DHT22;59686;51.716;7.016;2024-01-30T13:47:11;9.50;99.90
71837;DHT22;59686;51.716;7.016;2024-01-30T13:49:37;9.50;99.90
71837;DHT22;59686;51.716;7.016;2024-01-30T13:52:08;9.40;99.90
71837;DHT22;59686;51.716;7.016;2024-01-30T13:54:33;9.50;99.90
71837;DHT22;59686;51.716;7.016;2024-01-30T13:56:59;9.60;99.90
71837;DHT22;59686;51.716;7.016;2024-01-30T13:59:25;9.50;99.90
71837;DHT22;59686;51.716;7.016;2024-01-30T14:01:52;9.50;99.90
71837;DHT22;59686;51.716;7.016;2024-01-30T14:04:18;9.50;99.90
71837;DHT22;59686;51.716;7.016;2024-01-30T14:06:43;9.50;99.90
71837;DHT22;59686;51.716;7.016;2024-01-30T14:09:09;9.50;99.90
71837;DHT22;59686;51.716;7.016;2024-01-30T14:11:36;9.50;99.90
71837;DHT22;59686;51.716;7.016;2024-01-30T14:14:08;9.50;99.90
71837;DHT22;59686;51.716;7.016;2024-01-30T14:16:34;9.50;99.90
71837;DHT22;59686;51.716;7.016;2024-01-30T14:19:00;9.50;99.90
71837;DHT22;59686;51.716;7.016;2024-01-30T14:21:25;9.50;99.90
71837;DHT22;59686;51.716;7.016;2024-01-30T14:23:51;9.60;99.90
71837;DHT22;59686;51.716;7.016;2024-01-30T14:26:17;9.60;99.90
71837;DHT22;59686;51.716;7.016;2024-01-30T14:28:43;9.60;99.90
71837;DHT22;59686;51.716;7.016;2024-01-30T14:31:11;9.60;99.90
71837;DHT22;59686;51.716;7.016;2024-01-30T14:33:37;9.50;99.90
71837;DHT22;59686;51.716;7.016;2024-01-30T14:36:03;9.70;99.90
71837;DHT22;59686;51.716;7.016;2024-01-30T14:38:29;9.70;99.90
71837;DHT22;59686;51.716;7.016;2024-01-30T14:40:54;9.70;99.90
71837;DHT22;59686;51.716;7.016;2024-01-30T14:43:20;9.80;99.90
71837;DHT22;59686;51.716;7.016;2024-01-30T14:45:46;9.80;99.90
71837;DHT22;59686;51.716;7.016;2024-01-30T14:48:16;9.80;99.90
71837;DHT22;59686;51.716;7.016;2024-01-30T14:50:45;9.80;99.90
71837;DHT22;59686;51.716;7.016;2024-01-30T14:53:11;9.90;99.90
71837;DHT22;59686;51.716;7.016;2024-01-30T14:55:37;9.90;99.90
71837;DHT22;59686;51.716;7.016;2024-01-30T14:58:03;10.00;99.80
71837;DHT22;59686;51.716;7.016;2024-01-30T15:00:29;10.00;99.90
71837;DHT22;59686;51.716;7.016;2024-01-30T15:02:56;10.00;99.70
71837;DHT22;59686;51.716;7.016;2024-01-30T15:05:41;10.00;99.80
71837;DHT22;59686;51.716;7.016;2024-01-30T15:08:07;10.00;99.60
71837;DHT22;59686;51.716;7.016;2024-01-30T15:10:34;10.00;99.60
71837;DHT22;59686;51.716;7.016;2024-01-30T15:13:00;10.00;99.50
71837;DHT22;59686;51.716;7.016;2024-01-30T15:15:26;9.90;99.50
71837;DHT22;59686;51.716;7.016;2024-01-30T15:17:54;10.00;99.40
71837;DHT22;59686;51.716;7.016;2024-01-30T15:20:20;10.00;99.20
71837;DHT22;59686;51.716;7.016;2024-01-30T15:22:46;10.00;98.90
71837;DHT22;59686;51.716;7.016;2024-01-30T15:25:15;10.10;98.70
71837;DHT22;59686;51.716;7.016;2024-01-30T15:27:41;10.00;98.60
71837;DHT22;59686;51.716;7.016;2024-01-30T15:30:08;10.00;98.30
71837;DHT22;59686;51.716;7.016;2024-01-30T15:32:37;10.00;98.10
71837;DHT22;59686;51.716;7.016;2024-01-30T15:35:03;10.00;98.20
71837;DHT22;59686;51.716;7.016;2024-01-30T15:37:29;10.00;98.00
71837;DHT22;59686;51.716;7.016;2024-01-30T15:39:55;9.90;97.80
71837;DHT22;59686;51.716;7.016;2024-01-30T15:42:28;9.90;97.70
71837;DHT22;59686;51.716;7.016;2024-01-30T15:44:54;9.90;97.70
71837;DHT22;59686;51.716;7.016;2024-01-30T15:47:20;10.00;97.80